Santez Anna — FLUB — position and weather

sailwx.info

Track history (hours):
 
Tides and Currents Weather Stations Pressure Air Temp Water Temp Dewpoint Dewpoint Depression Visibility Wind Speed Wind Dir Waves Ship Positions

Santez Anna

Last reported at 2018-Jun-16 15:49 UTC. Time now 2018-Jun-19 01:16 UTC.
Position N 47°35' W 003°01'.

Length 16 m.

Type: Pleasure craft. MMSI: 228347800.

Date/timePositionNaut miles runAvg speedWind from/ knotsBaromVisibWave heightAir tempDewpointWater temp
2018-Jun-16 15:49N 47°35' W 003°01'2 7.3
2018-Jun-16 15:30N 47°33' W 002°60'1 0.1
2018-Jun-16 09:13N 47°32' W 002°60'1 3.2
2018-Jun-16 08:52N 47°33' W 003°01'1 2.3
2018-Jun-16 08:30N 47°34' W 003°00'2 0.1
2018-Jun-15 16:02N 47°35' W 003°01'0 7.2
2018-Jun-15 15:59N 47°35' W 003°01'3 4.7
2018-Jun-15 15:20N 47°32' W 003°00'2 3.1
2018-Jun-15 14:35N 47°32' W 003°03'0 5.3
2018-Jun-15 14:30N 47°32' W 003°04'2 4.3
2018-Jun-15 14:00N 47°33' W 003°01'  
Track history (hours):
 
Tides and Currents Weather Stations Pressure Air Temp Water Temp Dewpoint Dewpoint Depression Visibility Wind Speed Wind Dir Waves Ship Positions

Santez Anna

Last reported at 2018-Jun-16 15:49 UTC. Time now 2018-Jun-19 01:16 UTC.
Position N 47°35' W 003°01'.

Length 16 m.

Type: Pleasure craft. MMSI: 228347800.

Date/timePositionNaut miles runAvg speedWind from/ knotsBaromVisibWave heightAir tempDewpointWater temp
2018-Jun-16 15:49N 47°35' W 003°01'2 7.3
2018-Jun-16 15:30N 47°33' W 002°60'1 0.1
2018-Jun-16 09:13N 47°32' W 002°60'1 3.2
2018-Jun-16 08:52N 47°33' W 003°01'1 2.3
2018-Jun-16 08:30N 47°34' W 003°00'2 0.1
2018-Jun-15 16:02N 47°35' W 003°01'0 7.2
2018-Jun-15 15:59N 47°35' W 003°01'3 4.7
2018-Jun-15 15:20N 47°32' W 003°00'2 3.1
2018-Jun-15 14:35N 47°32' W 003°03'0 5.3
2018-Jun-15 14:30N 47°32' W 003°04'2 4.3
2018-Jun-15 14:00N 47°33' W 003°01'  

Dump ship's entire track history